Whitefield, NH

11:13 PM EST on December 17, 2014 (GMT -0500)
Kilkenny View Rd | Change Station
CLOSE
Current Station
Personal Weather Station
Location: Jefferson, NH
Elevation: 1093 ft
Nearby Weather Stations
Active Advisory: Winter Weather Advisory

Elev 1093 ft 44.44 °N, 71.51 °W | Updated 5 seconds ago

Mostly Cloudy
Mostly Cloudy
32.8 °F
Feels Like 33 °F
N
0.0
Wind Variable Wind from WNW
Gusts 0.0 mph

Today
High -- | Low -- °F
--% Chance of Precip.
Yesterday
High -- | Low -- °F
Precip. -- in
7:17 AM 4:08 PM
Waning Crescent, 17% visible
Pressure 29.73 in
Visibility 6.0 miles
Clouds Few 800 ft
Mostly Cloudy 1700 ft
Overcast 2400 ft
Windchill 33 °F
Dew Point 31 °F
Humidity 93%
Rainfall 0.66 in
Snow Depth Not available.
UV 0 out of 12
Pollen .10 out of 12
Air Quality Not available.
Flu Activity Not available.
METAR KHIE 180352Z AUTO 00000KT 6SM -RA BR FEW008 BKN017 OVC024 01/01 A2969 RMK AO2 SLP066 P0002 T00110006

More Conditions Fewer Conditions

Pressure 29.73 in
Visibility 6.0 miles
Clouds Few 800 ft
Mostly Cloudy 1700 ft
Overcast 2400 ft
Windchill 33 °F
Dew Point 31 °F
Humidity 93%
Rainfall 0.66 in
Snow Depth Not available.
UV 0 out of 12
Pollen .10 out of 12
Air Quality Not available.
Flu Activity Not available.
METAR KHIE 180352Z AUTO 00000KT 6SM -RA BR FEW008 BKN017 OVC024 01/01 A2969 RMK AO2 SLP066 P0002 T00110006

More Conditions Fewer Conditions

10-Day Weather Forecast

Almanac

Astronomy

Dec. 17, 2014 Rise Set
Actual Time
Civil Twilight
Nautical Twilight
Astronomical Twilight
Moon
Length of Visible Light
Length of Day
Tomorrow will be .
, % of the Moon is Illuminated

Today's Extremes

State Highs State Lows

Community

WunderPhotos

Upload Photos

1,778,880 photos uploaded!

WunderBlogs® & News

Nearby

Air Quality

  Air Quality AQ Index Pollutant
Not available.

Snow Depth

Station Depth Elevation

Earthquake Activity

City Distance Mag. Time & Date
Minimum magnitude displayed is 2.5.

Coastal Water Temperatures

Place Temperature

Nearby Weather Stations